sensor_id;sensor_type;location;lat;lon;timestamp;temperature;humidity
4431;DHT22;2228;48.140;11.488;2023-10-13T19:26:42;15.40;99.90
4431;DHT22;2228;48.140;11.488;2023-10-13T19:29:09;15.30;99.90
4431;DHT22;2228;48.140;11.488;2023-10-13T19:31:36;15.30;99.90
4431;DHT22;2228;48.140;11.488;2023-10-13T19:34:03;15.30;99.90
4431;DHT22;2228;48.140;11.488;2023-10-13T19:36:35;15.20;99.90
4431;DHT22;2228;48.140;11.488;2023-10-13T19:39:04;15.20;99.90
4431;DHT22;2228;48.140;11.488;2023-10-13T19:41:31;15.20;99.90
4431;DHT22;2228;48.140;11.488;2023-10-13T19:44:00;15.10;99.90
4431;DHT22;2228;48.140;11.488;2023-10-13T19:46:29;15.50;99.90
4431;DHT22;2228;48.140;11.488;2023-10-13T19:48:57;15.30;99.90
4431;DHT22;2228;48.140;11.488;2023-10-13T19:51:24;15.10;99.90
4431;DHT22;2228;48.140;11.488;2023-10-13T19:53:54;15.20;99.90
4431;DHT22;2228;48.140;11.488;2023-10-13T19:56:22;15.20;99.90
4431;DHT22;2228;48.140;11.488;2023-10-13T19:58:50;15.30;99.90
4431;DHT22;2228;48.140;11.488;2023-10-13T20:01:20;15.30;99.90
4431;DHT22;2228;48.140;11.488;2023-10-13T20:03:49;15.40;99.90
4431;DHT22;2228;48.140;11.488;2023-10-13T20:06:20;15.50;99.90
4431;DHT22;2228;48.140;11.488;2023-10-13T20:08:49;15.60;99.90
4431;DHT22;2228;48.140;11.488;2023-10-13T20:11:16;15.60;99.90
4431;DHT22;2228;48.140;11.488;2023-10-13T20:13:43;15.60;99.90
4431;DHT22;2228;48.140;11.488;2023-10-13T20:16:12;15.80;99.90
4431;DHT22;2228;48.140;11.488;2023-10-13T20:18:47;15.60;99.90
4431;DHT22;2228;48.140;11.488;2023-10-13T20:21:14;15.50;99.90
4431;DHT22;2228;48.140;11.488;2023-10-13T20:23:41;15.60;99.90
4431;DHT22;2228;48.140;11.488;2023-10-13T20:26:08;15.60;99.90
4431;DHT22;2228;48.140;11.488;2023-10-13T20:28:40;15.60;99.90
4431;DHT22;2228;48.140;11.488;2023-10-13T20:31:07;15.60;99.90
4431;DHT22;2228;48.140;11.488;2023-10-13T20:33:36;15.70;99.90
4431;DHT22;2228;48.140;11.488;2023-10-13T20:36:04;15.50;99.90
4431;DHT22;2228;48.140;11.488;2023-10-13T20:38:31;15.40;99.90
4431;DHT22;2228;48.140;11.488;2023-10-13T20:40:59;15.60;99.90
4431;DHT22;2228;48.140;11.488;2023-10-13T20:43:28;15.40;99.90
4431;DHT22;2228;48.140;11.488;2023-10-13T20:45:55;15.30;99.90
4431;DHT22;2228;48.140;11.488;2023-10-13T20:48:24;15.30;99.90
4431;DHT22;2228;48.140;11.488;2023-10-13T20:50:57;14.90;99.90
4431;DHT22;2228;48.140;11.488;2023-10-13T20:53:26;15.30;99.90
4431;DHT22;2228;48.140;11.488;2023-10-13T20:56:03;15.20;99.90
4431;DHT22;2228;48.140;11.488;2023-10-13T20:58:31;15.20;99.90
4431;DHT22;2228;48.140;11.488;2023-10-13T21:01:04;15.20;99.90
4431;DHT22;2228;48.140;11.488;2023-10-13T21:03:34;15.30;99.90
4431;DHT22;2228;48.140;11.488;2023-10-13T21:06:03;15.40;99.90
4431;DHT22;2228;48.140;11.488;2023-10-13T21:08:34;15.30;99.90
4431;DHT22;2228;48.140;11.488;2023-10-13T21:11:04;15.50;99.90
4431;DHT22;2228;48.140;11.488;2023-10-13T21:13:32;15.30;99.90
4431;DHT22;2228;48.140;11.488;2023-10-13T21:15:59;15.30;99.90
4431;DHT22;2228;48.140;11.488;2023-10-13T21:18:27;15.20;99.90
4431;DHT22;2228;48.140;11.488;2023-10-13T21:21:04;15.40;99.90
4431;DHT22;2228;48.140;11.488;2023-10-13T21:23:32;15.10;99.90
4431;DHT22;2228;48.140;11.488;2023-10-13T21:26:01;15.20;99.90
4431;DHT22;2228;48.140;11.488;2023-10-13T21:28:28;15.10;99.90
4431;DHT22;2228;48.140;11.488;2023-10-13T21:31:05;15.20;99.90
4431;DHT22;2228;48.140;11.488;2023-10-13T21:33:32;15.10;99.90
4431;DHT22;2228;48.140;11.488;2023-10-13T21:36:05;15.10;99.90
4431;DHT22;2228;48.140;11.488;2023-10-13T21:38:34;15.20;99.90
4431;DHT22;2228;48.140;11.488;2023-10-13T21:41:05;15.20;99.90
4431;DHT22;2228;48.140;11.488;2023-10-13T21:43:32;15.30;99.90
4431;DHT22;2228;48.140;11.488;2023-10-13T21:46:04;15.30;99.90
4431;DHT22;2228;48.140;11.488;2023-10-13T21:48:33;15.30;99.90
4431;DHT22;2228;48.140;11.488;2023-10-13T21:51:07;15.30;99.90
4431;DHT22;2228;48.140;11.488;2023-10-13T21:53:34;15.40;99.90
4431;DHT22;2228;48.140;11.488;2023-10-13T21:56:02;15.30;99.90
4431;DHT22;2228;48.140;11.488;2023-10-13T21:58:31;15.30;99.90
4431;DHT22;2228;48.140;11.488;2023-10-13T22:00:58;15.30;99.90
4431;DHT22;2228;48.140;11.488;2023-10-13T22:03:25;15.40;99.90
4431;DHT22;2228;48.140;11.488;2023-10-13T22:05:55;15.30;99.90
4431;DHT22;2228;48.140;11.488;2023-10-13T22:08:26;15.30;99.90
4431;DHT22;2228;48.140;11.488;2023-10-13T22:10:55;15.30;99.90
4431;DHT22;2228;48.140;11.488;2023-10-13T22:13:23;15.20;99.90
4431;DHT22;2228;48.140;11.488;2023-10-13T22:15:52;14.40;99.90
4431;DHT22;2228;48.140;11.488;2023-10-13T22:18:19;15.30;99.90
4431;DHT22;2228;48.140;11.488;2023-10-13T22:20:47;15.70;99.90
4431;DHT22;2228;48.140;11.488;2023-10-13T22:23:14;15.30;99.90
4431;DHT22;2228;48.140;11.488;2023-10-13T22:25:41;15.60;99.90
4431;DHT22;2228;48.140;11.488;2023-10-13T22:28:10;15.20;99.90
4431;DHT22;2228;48.140;11.488;2023-10-13T22:30:39;15.30;99.90
4431;DHT22;2228;48.140;11.488;2023-10-13T22:33:07;15.10;99.90
4431;DHT22;2228;48.140;11.488;2023-10-13T22:35:34;15.10;99.90
4431;DHT22;2228;48.140;11.488;2023-10-13T22:38:01;15.10;99.90
4431;DHT22;2228;48.140;11.488;2023-10-13T22:40:33;15.20;99.90
4431;DHT22;2228;48.140;11.488;2023-10-13T22:43:00;15.00;99.90
4431;DHT22;2228;48.140;11.488;2023-10-13T22:45:27;14.80;99.90
4431;DHT22;2228;48.140;11.488;2023-10-13T22:47:56;14.70;99.90
4431;DHT22;2228;48.140;11.488;2023-10-13T22:50:25;14.60;99.90
4431;DHT22;2228;48.140;11.488;2023-10-13T22:52:52;14.50;99.90
4431;DHT22;2228;48.140;11.488;2023-10-13T22:55:22;14.50;99.90
4431;DHT22;2228;48.140;11.488;2023-10-13T22:57:55;14.40;99.90
4431;DHT22;2228;48.140;11.488;2023-10-13T23:00:24;14.30;99.90
4431;DHT22;2228;48.140;11.488;2023-10-13T23:03:09;14.10;99.90
4431;DHT22;2228;48.140;11.488;2023-10-13T23:05:40;14.30;99.90
4431;DHT22;2228;48.140;11.488;2023-10-13T23:08:18;14.40;99.90
4431;DHT22;2228;48.140;11.488;2023-10-13T23:10:48;14.30;99.90
4431;DHT22;2228;48.140;11.488;2023-10-13T23:13:18;14.30;99.90
4431;DHT22;2228;48.140;11.488;2023-10-13T23:15:46;14.40;99.90
4431;DHT22;2228;48.140;11.488;2023-10-13T23:18:14;14.30;99.90
4431;DHT22;2228;48.140;11.488;2023-10-13T23:20:43;14.40;99.90
4431;DHT22;2228;48.140;11.488;2023-10-13T23:23:11;14.40;99.90
4431;DHT22;2228;48.140;11.488;2023-10-13T23:25:38;14.40;99.90
4431;DHT22;2228;48.140;11.488;2023-10-13T23:28:07;14.40;99.90
4431;DHT22;2228;48.140;11.488;2023-10-13T23:30:35;14.40;99.90
4431;DHT22;2228;48.140;11.488;2023-10-13T23:33:04;14.50;99.90
4431;DHT22;2228;48.140;11.488;2023-10-13T23:35:37;14.60;99.90
4431;DHT22;2228;48.140;11.488;2023-10-13T23:38:08;14.60;99.90
4431;DHT22;2228;48.140;11.488;2023-10-13T23:40:44;14.60;99.90
4431;DHT22;2228;48.140;11.488;2023-10-13T23:43:12;14.40;99.90
4431;DHT22;2228;48.140;11.488;2023-10-13T23:45:51;14.50;99.90
4431;DHT22;2228;48.140;11.488;2023-10-13T23:48:23;14.40;99.90
4431;DHT22;2228;48.140;11.488;2023-10-13T23:50:52;14.40;99.90
4431;DHT22;2228;48.140;11.488;2023-10-13T23:53:28;14.50;99.90
4431;DHT22;2228;48.140;11.488;2023-10-13T23:56:00;14.80;99.90
4431;DHT22;2228;48.140;11.488;2023-10-13T23:58:29;14.30;99.90
